Погода Чернаводэна 2 недели

Юго-восточный, Румыния

17 - 30 июня
  • 17июня
    Сегодня
    +19°
    +33°
    Практически безоблачно
    ВремяПогодаТемператураВлажностьДавлениеВетер, м/сВероятность осадков
    00:00Ясно и безоблачно+22°C67 %758 мм2.4 м/с2 %
    03:00Ясно и безоблачно+19°C73 %759 мм2.1 м/с2 %
    06:00Ясно и безоблачно+19°C75 %759 мм1.7 м/с2 %
    09:00Ясно и безоблачно+24°C58 %760 мм1.9 м/с2 %
    12:00Ясно и безоблачно+29°C41 %760 мм2.0 м/с2 %
    15:00Практически безоблачно+32°C35 %760 мм2.2 м/с2 %
    18:00Ясно и безоблачно+33°C36 %760 мм2.5 м/с2 %
    21:00Ясно и безоблачно+28°C50 %760 мм2.0 м/с2 %
  • 18июня
    Вторник
    +19°
    +33°
    Небольшая облачность
    ВремяПогодаТемператураВлажностьДавлениеВетер, м/сВероятность осадков
    00:00Ясно и безоблачно+23°C65 %761 мм2.3 м/с2 %
    03:00Ясно и безоблачно+21°C81 %762 мм1.8 м/с2 %
    06:00Ясно и безоблачно+20°C86 %762 мм1.2 м/с2 %
    09:00Ясно и безоблачно+24°C63 %763 мм1.7 м/с2 %
    12:00Ясно и безоблачно+31°C40 %764 мм1.8 м/с2 %
    15:00Небольшая облачность+32°C44 %764 мм2.8 м/с22 %
    18:00Практически безоблачно+31°C44 %763 мм3.2 м/с21 %
    21:00Небольшая облачность+27°C60 %763 мм2.8 м/с2 %
  • 19июня
    Среда
    +18°
    +33°
    Ясно и безоблачно
    ВремяПогодаТемператураВлажностьДавлениеВетер, м/сВероятность осадков
    00:00Ясно и безоблачно+22°C69 %764 мм2.3 м/с2 %
    03:00Ясно и безоблачно+20°C77 %764 мм1.9 м/с2 %
    06:00Ясно и безоблачно+19°C85 %764 мм1.6 м/с2 %
    09:00Ясно и безоблачно+25°C51 %764 мм1.8 м/с2 %
    12:00Ясно и безоблачно+31°C42 %764 мм2.3 м/с2 %
    15:00Ясно и безоблачно+32°C41 %764 мм2.9 м/с2 %
    18:00Ясно и безоблачно+32°C44 %763 мм3.9 м/с2 %
    21:00Ясно и безоблачно+27°C59 %763 мм3.1 м/с2 %
  • 20июня
    Четверг
    +21°
    +37°
    Ясно и безоблачно
    ВремяПогодаТемператураВлажностьДавлениеВетер, м/сВероятность осадков
    00:00Ясно и безоблачно+22°C73 %763 мм2.5 м/с2 %
    03:00Ясно и безоблачно+20°C87 %763 мм1.8 м/с2 %
    06:00Ясно и безоблачно+19°C88 %763 мм1.5 м/с2 %
    09:00Ясно и безоблачно+26°C55 %763 мм1.7 м/с2 %
    12:00Ясно и безоблачно+33°C37 %763 мм1.8 м/с2 %
    15:00Ясно и безоблачно+35°C34 %761 мм1.1 м/с2 %
    18:00Ясно и безоблачно+36°C32 %761 мм2.6 м/с5 %
    21:00Небольшая облачность+29°C52 %761 мм2.0 м/с2 %
  • 21июня
    Пятница
    +18°
    +31°
    Ясно и безоблачно
    ВремяПогодаТемператураВлажностьДавлениеВетер, м/сВероятность осадков
    00:00Ясно и безоблачно+25°C70 %763 мм2.7 м/с2 %
    03:00Ясно и безоблачно+23°C78 %763 мм2.6 м/с2 %
    06:00Ясно и безоблачно+21°C68 %764 мм2.4 м/с2 %
    09:00Ясно и безоблачно+24°C56 %764 мм3.2 м/с2 %
    12:00Ясно и безоблачно+29°C49 %764 мм2.7 м/с2 %
    15:00Ясно и безоблачно+30°C42 %763 мм2.6 м/с14 %
    18:00Ясно и безоблачно+29°C44 %762 мм3.9 м/с10 %
    21:00Ясно и безоблачно+24°C57 %761 мм3.3 м/с2 %
Мы используем cookies
Соглашаюсь